sensor_id;sensor_type;location;lat;lon;timestamp;P1;durP1;ratioP1;P2;durP2;ratioP2
23117;SDS011;11728;50.624;6.014;2022-07-23T00:01:52;17.73;;;13.73;;
23117;SDS011;11728;50.624;6.014;2022-07-23T00:06:52;26.40;;;15.80;;
23117;SDS011;11728;50.624;6.014;2022-07-23T00:12:08;22.63;;;15.02;;
23117;SDS011;11728;50.624;6.014;2022-07-23T00:17:20;21.08;;;16.10;;
23117;SDS011;11728;50.624;6.014;2022-07-23T00:22:25;20.58;;;15.50;;
23117;SDS011;11728;50.624;6.014;2022-07-23T00:27:38;22.75;;;14.43;;
23117;SDS011;11728;50.624;6.014;2022-07-23T00:32:53;17.30;;;12.77;;
23117;SDS011;11728;50.624;6.014;2022-07-23T00:37:56;17.80;;;12.48;;
23117;SDS011;11728;50.624;6.014;2022-07-23T00:43:14;17.25;;;12.25;;
23117;SDS011;11728;50.624;6.014;2022-07-23T00:48:27;14.18;;;10.95;;
23117;SDS011;11728;50.624;6.014;2022-07-23T00:53:28;17.77;;;12.07;;
23117;SDS011;11728;50.624;6.014;2022-07-23T00:58:44;17.10;;;11.57;;
23117;SDS011;11728;50.624;6.014;2022-07-23T01:03:57;14.90;;;10.73;;
23117;SDS011;11728;50.624;6.014;2022-07-23T01:09:01;18.25;;;11.35;;
23117;SDS011;11728;50.624;6.014;2022-07-23T01:14:18;16.83;;;11.23;;
23117;SDS011;11728;50.624;6.014;2022-07-23T01:19:31;21.65;;;12.75;;
23117;SDS011;11728;50.624;6.014;2022-07-23T01:24:34;16.23;;;11.77;;
23117;SDS011;11728;50.624;6.014;2022-07-23T01:29:48;19.17;;;13.27;;
23117;SDS011;11728;50.624;6.014;2022-07-23T01:35:01;17.90;;;12.80;;
23117;SDS011;11728;50.624;6.014;2022-07-23T01:40:08;16.38;;;12.23;;
23117;SDS011;11728;50.624;6.014;2022-07-23T01:45:20;19.38;;;13.85;;
23117;SDS011;11728;50.624;6.014;2022-07-23T01:50:37;20.60;;;13.00;;
23117;SDS011;11728;50.624;6.014;2022-07-23T01:55:55;21.17;;;13.75;;
23117;SDS011;11728;50.624;6.014;2022-07-23T02:00:55;21.25;;;15.10;;
23117;SDS011;11728;50.624;6.014;2022-07-23T02:06:09;23.40;;;16.00;;
23117;SDS011;11728;50.624;6.014;2022-07-23T02:11:14;23.23;;;16.98;;
23117;SDS011;11728;50.624;6.014;2022-07-23T02:16:26;26.33;;;17.73;;
23117;SDS011;11728;50.624;6.014;2022-07-23T02:21:42;22.70;;;16.52;;
23117;SDS011;11728;50.624;6.014;2022-07-23T02:26:43;25.05;;;18.52;;
23117;SDS011;11728;50.624;6.014;2022-07-23T02:31:59;30.58;;;21.27;;
23117;SDS011;11728;50.624;6.014;2022-07-23T02:37:14;28.00;;;21.35;;
23117;SDS011;11728;50.624;6.014;2022-07-23T02:42:18;31.50;;;22.38;;
23117;SDS011;11728;50.624;6.014;2022-07-23T02:47:30;33.00;;;23.48;;
23117;SDS011;11728;50.624;6.014;2022-07-23T02:52:42;31.17;;;22.83;;
23117;SDS011;11728;50.624;6.014;2022-07-23T02:57:49;19.85;;;12.10;;
23117;SDS011;11728;50.624;6.014;2022-07-23T03:03:04;17.05;;;10.77;;
23117;SDS011;11728;50.624;6.014;2022-07-23T03:08:17;14.00;;;10.13;;
23117;SDS011;11728;50.624;6.014;2022-07-23T03:13:23;21.23;;;13.82;;
23117;SDS011;11728;50.624;6.014;2022-07-23T03:18:36;20.42;;;15.05;;
23117;SDS011;11728;50.624;6.014;2022-07-23T03:23:46;20.15;;;15.02;;
23117;SDS011;11728;50.624;6.014;2022-07-23T03:28:49;17.92;;;13.35;;
23117;SDS011;11728;50.624;6.014;2022-07-23T03:34:05;18.95;;;13.05;;
23117;SDS011;11728;50.624;6.014;2022-07-23T03:39:21;19.88;;;12.85;;
23117;SDS011;11728;50.624;6.014;2022-07-23T03:44:25;18.60;;;13.32;;
23117;SDS011;11728;50.624;6.014;2022-07-23T03:49:41;19.05;;;13.40;;
23117;SDS011;11728;50.624;6.014;2022-07-23T03:54:52;17.27;;;13.63;;
23117;SDS011;11728;50.624;6.014;2022-07-23T03:59:58;18.83;;;13.07;;
23117;SDS011;11728;50.624;6.014;2022-07-23T04:05:11;18.40;;;13.25;;
23117;SDS011;11728;50.624;6.014;2022-07-23T04:10:27;18.13;;;14.43;;
23117;SDS011;11728;50.624;6.014;2022-07-23T04:15:28;21.98;;;14.68;;
23117;SDS011;11728;50.624;6.014;2022-07-23T04:20:42;19.08;;;14.77;;
23117;SDS011;11728;50.624;6.014;2022-07-23T04:25:59;20.80;;;14.95;;
23117;SDS011;11728;50.624;6.014;2022-07-23T04:31:00;18.52;;;14.02;;
23117;SDS011;11728;50.624;6.014;2022-07-23T04:36:16;19.75;;;13.95;;
23117;SDS011;11728;50.624;6.014;2022-07-23T04:41:28;17.90;;;14.68;;
23117;SDS011;11728;50.624;6.014;2022-07-23T04:46:32;21.92;;;14.95;;
23117;SDS011;11728;50.624;6.014;2022-07-23T04:51:45;19.63;;;15.35;;
23117;SDS011;11728;50.624;6.014;2022-07-23T04:57:01;19.40;;;15.48;;
23117;SDS011;11728;50.624;6.014;2022-07-23T05:02:04;22.50;;;15.85;;
23117;SDS011;11728;50.624;6.014;2022-07-23T05:07:17;24.42;;;17.65;;
23117;SDS011;11728;50.624;6.014;2022-07-23T05:12:34;23.17;;;16.83;;
23117;SDS011;11728;50.624;6.014;2022-07-23T05:17:38;21.10;;;16.88;;
23117;SDS011;11728;50.624;6.014;2022-07-23T05:22:50;22.33;;;16.15;;
23117;SDS011;11728;50.624;6.014;2022-07-23T05:28:04;24.05;;;17.35;;
23117;SDS011;11728;50.624;6.014;2022-07-23T05:33:09;24.40;;;16.85;;
23117;SDS011;11728;50.624;6.014;2022-07-23T05:38:23;22.42;;;17.23;;
23117;SDS011;11728;50.624;6.014;2022-07-23T05:43:40;23.55;;;17.15;;
23117;SDS011;11728;50.624;6.014;2022-07-23T05:48:44;24.10;;;17.85;;
23117;SDS011;11728;50.624;6.014;2022-07-23T05:54:09;19.17;;;15.13;;
23117;SDS011;11728;50.624;6.014;2022-07-23T05:59:12;21.38;;;16.30;;
23117;SDS011;11728;50.624;6.014;2022-07-23T06:04:15;20.40;;;15.93;;
23117;SDS011;11728;50.624;6.014;2022-07-23T06:09:28;21.33;;;17.15;;
23117;SDS011;11728;50.624;6.014;2022-07-23T06:14:44;19.10;;;15.60;;
23117;SDS011;11728;50.624;6.014;2022-07-23T06:19:44;21.77;;;16.13;;
23117;SDS011;11728;50.624;6.014;2022-07-23T06:25:00;21.48;;;18.33;;
23117;SDS011;11728;50.624;6.014;2022-07-23T06:30:14;22.67;;;17.00;;
23117;SDS011;11728;50.624;6.014;2022-07-23T06:35:18;20.27;;;16.63;;
23117;SDS011;11728;50.624;6.014;2022-07-23T06:40:26;22.83;;;16.70;;
23117;SDS011;11728;50.624;6.014;2022-07-23T06:45:45;22.33;;;17.80;;
23117;SDS011;11728;50.624;6.014;2022-07-23T06:50:45;23.23;;;18.02;;
23117;SDS011;11728;50.624;6.014;2022-07-23T06:56:02;24.55;;;19.15;;
23117;SDS011;11728;50.624;6.014;2022-07-23T07:01:18;23.98;;;18.80;;
23117;SDS011;11728;50.624;6.014;2022-07-23T07:06:19;22.17;;;18.15;;
23117;SDS011;11728;50.624;6.014;2022-07-23T07:11:35;24.30;;;17.77;;
23117;SDS011;11728;50.624;6.014;2022-07-23T07:16:45;22.23;;;16.27;;
23117;SDS011;11728;50.624;6.014;2022-07-23T07:21:48;19.00;;;15.05;;
23117;SDS011;11728;50.624;6.014;2022-07-23T07:27:03;20.25;;;16.67;;
23117;SDS011;11728;50.624;6.014;2022-07-23T07:32:17;17.90;;;13.93;;
23117;SDS011;11728;50.624;6.014;2022-07-23T07:37:21;16.38;;;13.98;;
23117;SDS011;11728;50.624;6.014;2022-07-23T07:42:33;16.55;;;13.02;;
23117;SDS011;11728;50.624;6.014;2022-07-23T07:47:52;15.20;;;10.00;;
23117;SDS011;11728;50.624;6.014;2022-07-23T07:52:53;11.65;;;8.60;;
23117;SDS011;11728;50.624;6.014;2022-07-23T07:58:09;14.57;;;9.15;;
23117;SDS011;11728;50.624;6.014;2022-07-23T08:03:21;12.57;;;9.23;;
23117;SDS011;11728;50.624;6.014;2022-07-23T08:08:25;14.35;;;9.98;;
23117;SDS011;11728;50.624;6.014;2022-07-23T08:13:40;12.10;;;9.30;;
23117;SDS011;11728;50.624;6.014;2022-07-23T08:18:56;13.27;;;8.68;;
23117;SDS011;11728;50.624;6.014;2022-07-23T08:23:56;11.93;;;7.80;;
23117;SDS011;11728;50.624;6.014;2022-07-23T08:29:09;9.02;;;7.07;;
23117;SDS011;11728;50.624;6.014;2022-07-23T08:34:25;10.55;;;6.50;;
23117;SDS011;11728;50.624;6.014;2022-07-23T08:39:29;7.57;;;6.10;;
23117;SDS011;11728;50.624;6.014;2022-07-23T08:44:41;9.98;;;7.70;;
23117;SDS011;11728;50.624;6.014;2022-07-23T08:50:00;9.98;;;8.27;;
23117;SDS011;11728;50.624;6.014;2022-07-23T08:55:02;11.10;;;5.80;;
23117;SDS011;11728;50.624;6.014;2022-07-23T09:00:12;10.88;;;7.68;;
23117;SDS011;11728;50.624;6.014;2022-07-23T09:05:29;9.98;;;7.55;;
23117;SDS011;11728;50.624;6.014;2022-07-23T09:10:43;10.40;;;8.07;;
23117;SDS011;11728;50.624;6.014;2022-07-23T09:15:53;10.02;;;8.43;;
23117;SDS011;11728;50.624;6.014;2022-07-23T09:21:06;9.68;;;7.70;;
23117;SDS011;11728;50.624;6.014;2022-07-23T09:31:21;9.95;;;8.20;;
23117;SDS011;11728;50.624;6.014;2022-07-23T09:36:35;10.82;;;6.93;;
23117;SDS011;11728;50.624;6.014;2022-07-23T09:41:43;11.82;;;7.60;;
23117;SDS011;11728;50.624;6.014;2022-07-23T09:46:51;9.80;;;7.55;;
23117;SDS011;11728;50.624;6.014;2022-07-23T09:52:07;12.10;;;7.03;;
23117;SDS011;11728;50.624;6.014;2022-07-23T09:57:12;8.07;;;6.88;;
23117;SDS011;11728;50.624;6.014;2022-07-23T10:02:22;11.40;;;6.28;;
23117;SDS011;11728;50.624;6.014;2022-07-23T10:07:45;5.95;;;3.88;;
23117;SDS011;11728;50.624;6.014;2022-07-23T10:13:05;5.00;;;3.75;;
23117;SDS011;11728;50.624;6.014;2022-07-23T10:18:08;7.93;;;4.80;;
23117;SDS011;11728;50.624;6.014;2022-07-23T10:23:14;5.60;;;4.07;;
23117;SDS011;11728;50.624;6.014;2022-07-23T10:28:29;8.35;;;3.88;;
23117;SDS011;11728;50.624;6.014;2022-07-23T10:39:04;5.05;;;3.72;;
23117;SDS011;11728;50.624;6.014;2022-07-23T10:49:23;5.63;;;3.60;;
23117;SDS011;11728;50.624;6.014;2022-07-23T10:54:26;5.45;;;3.50;;
23117;SDS011;11728;50.624;6.014;2022-07-23T10:59:26;4.60;;;3.53;;
23117;SDS011;11728;50.624;6.014;2022-07-23T11:04:47;5.30;;;4.38;;
23117;SDS011;11728;50.624;6.014;2022-07-23T11:09:49;4.57;;;3.55;;
23117;SDS011;11728;50.624;6.014;2022-07-23T11:15:09;4.30;;;3.22;;
23117;SDS011;11728;50.624;6.014;2022-07-23T11:20:16;6.38;;;3.95;;
23117;SDS011;11728;50.624;6.014;2022-07-23T11:31:53;5.78;;;3.80;;
23117;SDS011;11728;50.624;6.014;2022-07-23T11:36:54;4.35;;;3.50;;
23117;SDS011;11728;50.624;6.014;2022-07-23T11:41:56;4.50;;;3.10;;
23117;SDS011;11728;50.624;6.014;2022-07-23T11:47:08;5.32;;;3.45;;
23117;SDS011;11728;50.624;6.014;2022-07-23T11:52:15;5.88;;;3.20;;
23117;SDS011;11728;50.624;6.014;2022-07-23T11:57:29;5.53;;;3.20;;
23117;SDS011;11728;50.624;6.014;2022-07-23T12:02:48;11.88;;;3.20;;
23117;SDS011;11728;50.624;6.014;2022-07-23T12:07:51;5.07;;;3.15;;
23117;SDS011;11728;50.624;6.014;2022-07-23T12:12:54;4.72;;;3.25;;
23117;SDS011;11728;50.624;6.014;2022-07-23T12:18:09;4.15;;;2.58;;
23117;SDS011;11728;50.624;6.014;2022-07-23T12:23:13;5.90;;;3.20;;
23117;SDS011;11728;50.624;6.014;2022-07-23T12:28:28;4.57;;;2.65;;
23117;SDS011;11728;50.624;6.014;2022-07-23T12:33:42;6.15;;;2.63;;
23117;SDS011;11728;50.624;6.014;2022-07-23T12:38:47;4.55;;;2.80;;
23117;SDS011;11728;50.624;6.014;2022-07-23T12:43:57;4.15;;;2.80;;
23117;SDS011;11728;50.624;6.014;2022-07-23T12:49:25;4.28;;;3.05;;
23117;SDS011;11728;50.624;6.014;2022-07-23T12:54:27;4.63;;;2.60;;
23117;SDS011;11728;50.624;6.014;2022-07-23T12:59:31;3.45;;;2.30;;
23117;SDS011;11728;50.624;6.014;2022-07-23T13:04:46;2.70;;;2.35;;
23117;SDS011;11728;50.624;6.014;2022-07-23T13:09:47;4.32;;;2.58;;
23117;SDS011;11728;50.624;6.014;2022-07-23T13:15:03;4.20;;;2.30;;
23117;SDS011;11728;50.624;6.014;2022-07-23T13:20:19;4.35;;;2.92;;
23117;SDS011;11728;50.624;6.014;2022-07-23T13:25:20;6.90;;;2.83;;
23117;SDS011;11728;50.624;6.014;2022-07-23T13:30:35;3.85;;;2.40;;
23117;SDS011;11728;50.624;6.014;2022-07-23T13:35:48;4.32;;;3.13;;
23117;SDS011;11728;50.624;6.014;2022-07-23T13:40:50;4.35;;;2.33;;
23117;SDS011;11728;50.624;6.014;2022-07-23T13:46:07;4.63;;;2.73;;
23117;SDS011;11728;50.624;6.014;2022-07-23T13:51:20;5.20;;;2.30;;
23117;SDS011;11728;50.624;6.014;2022-07-23T13:56:24;5.60;;;2.78;;
23117;SDS011;11728;50.624;6.014;2022-07-23T14:01:36;5.00;;;3.05;;
23117;SDS011;11728;50.624;6.014;2022-07-23T14:06:55;6.18;;;3.13;;
23117;SDS011;11728;50.624;6.014;2022-07-23T14:12:00;4.03;;;2.53;;
23117;SDS011;11728;50.624;6.014;2022-07-23T14:17:15;3.95;;;2.47;;
23117;SDS011;11728;50.624;6.014;2022-07-23T14:22:31;6.07;;;2.90;;
23117;SDS011;11728;50.624;6.014;2022-07-23T14:27:32;5.97;;;2.60;;
23117;SDS011;11728;50.624;6.014;2022-07-23T14:32:47;4.82;;;2.70;;
23117;SDS011;11728;50.624;6.014;2022-07-23T14:38:00;5.13;;;3.40;;
23117;SDS011;11728;50.624;6.014;2022-07-23T14:43:03;5.03;;;2.90;;
23117;SDS011;11728;50.624;6.014;2022-07-23T14:48:19;3.22;;;2.60;;
23117;SDS011;11728;50.624;6.014;2022-07-23T14:53:32;4.18;;;2.40;;
23117;SDS011;11728;50.624;6.014;2022-07-23T14:58:35;4.88;;;3.00;;
23117;SDS011;11728;50.624;6.014;2022-07-23T15:03:47;5.57;;;3.00;;
23117;SDS011;11728;50.624;6.014;2022-07-23T15:09:06;5.85;;;2.97;;
23117;SDS011;11728;50.624;6.014;2022-07-23T15:14:07;5.00;;;2.83;;
23117;SDS011;11728;50.624;6.014;2022-07-23T15:19:23;4.47;;;2.70;;
23117;SDS011;11728;50.624;6.014;2022-07-23T15:24:39;4.10;;;3.20;;
23117;SDS011;11728;50.624;6.014;2022-07-23T15:29:39;5.47;;;3.80;;
23117;SDS011;11728;50.624;6.014;2022-07-23T15:34:55;6.18;;;3.08;;
23117;SDS011;11728;50.624;6.014;2022-07-23T15:40:11;4.53;;;3.10;;
23117;SDS011;11728;50.624;6.014;2022-07-23T15:45:12;4.55;;;3.22;;
23117;SDS011;11728;50.624;6.014;2022-07-23T15:50:25;6.18;;;3.10;;
23117;SDS011;11728;50.624;6.014;2022-07-23T15:55:41;6.90;;;3.38;;
23117;SDS011;11728;50.624;6.014;2022-07-23T16:00:47;3.78;;;3.10;;
23117;SDS011;11728;50.624;6.014;2022-07-23T16:05:56;4.57;;;3.28;;
23117;SDS011;11728;50.624;6.014;2022-07-23T16:11:13;6.78;;;3.38;;
23117;SDS011;11728;50.624;6.014;2022-07-23T16:16:14;6.43;;;2.95;;
23117;SDS011;11728;50.624;6.014;2022-07-23T16:21:33;6.10;;;3.65;;
23117;SDS011;11728;50.624;6.014;2022-07-23T16:26:43;7.10;;;3.38;;
23117;SDS011;11728;50.624;6.014;2022-07-23T16:31:49;5.15;;;3.03;;
23117;SDS011;11728;50.624;6.014;2022-07-23T16:37:09;5.35;;;3.55;;
23117;SDS011;11728;50.624;6.014;2022-07-23T16:42:25;6.63;;;3.38;;
23117;SDS011;11728;50.624;6.014;2022-07-23T16:47:31;5.85;;;3.30;;
23117;SDS011;11728;50.624;6.014;2022-07-23T16:52:41;5.78;;;3.22;;
23117;SDS011;11728;50.624;6.014;2022-07-23T16:58:00;14.23;;;6.63;;
23117;SDS011;11728;50.624;6.014;2022-07-23T17:03:00;5.85;;;3.33;;
23117;SDS011;11728;50.624;6.014;2022-07-23T17:13:33;6.00;;;3.20;;
23117;SDS011;11728;50.624;6.014;2022-07-23T17:18:33;8.90;;;4.90;;
23117;SDS011;11728;50.624;6.014;2022-07-23T17:23:49;5.75;;;3.00;;
23117;SDS011;11728;50.624;6.014;2022-07-23T17:29:02;6.85;;;3.28;;
23117;SDS011;11728;50.624;6.014;2022-07-23T17:34:03;6.43;;;3.40;;
23117;SDS011;11728;50.624;6.014;2022-07-23T17:39:22;6.90;;;3.35;;
23117;SDS011;11728;50.624;6.014;2022-07-23T17:44:31;5.38;;;3.30;;
23117;SDS011;11728;50.624;6.014;2022-07-23T17:49:37;5.95;;;3.28;;
23117;SDS011;11728;50.624;6.014;2022-07-23T17:54:50;8.15;;;3.70;;
23117;SDS011;11728;50.624;6.014;2022-07-23T18:00:07;7.75;;;3.60;;
23117;SDS011;11728;50.624;6.014;2022-07-23T18:05:10;12.00;;;4.18;;
23117;SDS011;11728;50.624;6.014;2022-07-23T18:10:26;6.80;;;3.30;;
23117;SDS011;11728;50.624;6.014;2022-07-23T18:15:42;4.13;;;3.05;;
23117;SDS011;11728;50.624;6.014;2022-07-23T18:20:43;10.38;;;3.88;;
23117;SDS011;11728;50.624;6.014;2022-07-23T18:25:55;5.20;;;3.40;;
23117;SDS011;11728;50.624;6.014;2022-07-23T18:31:11;6.38;;;3.03;;
23117;SDS011;11728;50.624;6.014;2022-07-23T18:36:16;6.53;;;3.55;;
23117;SDS011;11728;50.624;6.014;2022-07-23T18:41:32;4.70;;;3.47;;
23117;SDS011;11728;50.624;6.014;2022-07-23T18:46:47;4.45;;;3.05;;
23117;SDS011;11728;50.624;6.014;2022-07-23T18:51:47;4.55;;;3.30;;
23117;SDS011;11728;50.624;6.014;2022-07-23T18:57:00;4.63;;;3.20;;
23117;SDS011;11728;50.624;6.014;2022-07-23T19:02:15;5.65;;;3.38;;
23117;SDS011;11728;50.624;6.014;2022-07-23T19:07:19;5.28;;;3.25;;
23117;SDS011;11728;50.624;6.014;2022-07-23T19:12:34;4.15;;;2.92;;
23117;SDS011;11728;50.624;6.014;2022-07-23T19:17:50;7.78;;;3.47;;
23117;SDS011;11728;50.624;6.014;2022-07-23T19:22:54;6.88;;;3.00;;
23117;SDS011;11728;50.624;6.014;2022-07-23T19:28:04;5.15;;;3.35;;
23117;SDS011;11728;50.624;6.014;2022-07-23T19:33:21;6.50;;;3.30;;
23117;SDS011;11728;50.624;6.014;2022-07-23T19:38:25;7.78;;;3.55;;
23117;SDS011;11728;50.624;6.014;2022-07-23T19:43:37;6.97;;;3.28;;
23117;SDS011;11728;50.624;6.014;2022-07-23T19:48:50;7.82;;;3.88;;
23117;SDS011;11728;50.624;6.014;2022-07-23T19:53:56;5.60;;;3.60;;
23117;SDS011;11728;50.624;6.014;2022-07-23T19:59:09;11.13;;;4.03;;
23117;SDS011;11728;50.624;6.014;2022-07-23T20:04:24;6.28;;;3.33;;
23117;SDS011;11728;50.624;6.014;2022-07-23T20:09:28;5.13;;;3.70;;
23117;SDS011;11728;50.624;6.014;2022-07-23T20:14:40;12.02;;;3.22;;
23117;SDS011;11728;50.624;6.014;2022-07-23T20:19:56;6.13;;;3.83;;
23117;SDS011;11728;50.624;6.014;2022-07-23T20:24:57;4.78;;;3.33;;
23117;SDS011;11728;50.624;6.014;2022-07-23T20:30:12;4.38;;;3.50;;
23117;SDS011;11728;50.624;6.014;2022-07-23T20:35:28;5.95;;;3.72;;
23117;SDS011;11728;50.624;6.014;2022-07-23T20:40:29;3.88;;;3.35;;
23117;SDS011;11728;50.624;6.014;2022-07-23T20:45:45;6.00;;;3.47;;
23117;SDS011;11728;50.624;6.014;2022-07-23T20:50:58;4.18;;;3.35;;
23117;SDS011;11728;50.624;6.014;2022-07-23T20:56:02;5.43;;;3.38;;
23117;SDS011;11728;50.624;6.014;2022-07-23T21:01:14;5.63;;;3.50;;
23117;SDS011;11728;50.624;6.014;2022-07-23T21:06:30;5.22;;;3.40;;
23117;SDS011;11728;50.624;6.014;2022-07-23T21:11:34;6.45;;;3.80;;
23117;SDS011;11728;50.624;6.014;2022-07-23T21:16:49;4.35;;;3.00;;
23117;SDS011;11728;50.624;6.014;2022-07-23T21:22:05;5.63;;;3.55;;
23117;SDS011;11728;50.624;6.014;2022-07-23T21:27:07;4.57;;;3.47;;
23117;SDS011;11728;50.624;6.014;2022-07-23T21:32:24;5.53;;;3.58;;
23117;SDS011;11728;50.624;6.014;2022-07-23T21:37:39;9.00;;;3.50;;
23117;SDS011;11728;50.624;6.014;2022-07-23T21:42:42;7.35;;;3.28;;
23117;SDS011;11728;50.624;6.014;2022-07-23T21:47:55;5.05;;;3.10;;
23117;SDS011;11728;50.624;6.014;2022-07-23T21:53:14;9.30;;;3.60;;
23117;SDS011;11728;50.624;6.014;2022-07-23T21:58:14;5.28;;;3.85;;
23117;SDS011;11728;50.624;6.014;2022-07-23T22:03:30;5.97;;;3.28;;
23117;SDS011;11728;50.624;6.014;2022-07-23T22:08:46;4.63;;;2.97;;
23117;SDS011;11728;50.624;6.014;2022-07-23T22:13:46;5.53;;;3.30;;
23117;SDS011;11728;50.624;6.014;2022-07-23T22:18:59;5.20;;;3.38;;
23117;SDS011;11728;50.624;6.014;2022-07-23T22:24:18;7.00;;;3.35;;
23117;SDS011;11728;50.624;6.014;2022-07-23T22:29:19;6.50;;;3.72;;
23117;SDS011;11728;50.624;6.014;2022-07-23T22:34:31;4.95;;;3.53;;
23117;SDS011;11728;50.624;6.014;2022-07-23T22:39:47;5.63;;;3.72;;
23117;SDS011;11728;50.624;6.014;2022-07-23T22:44:47;5.45;;;3.70;;
23117;SDS011;11728;50.624;6.014;2022-07-23T22:50:06;4.50;;;3.22;;
23117;SDS011;11728;50.624;6.014;2022-07-23T22:55:20;6.53;;;3.58;;
23117;SDS011;11728;50.624;6.014;2022-07-23T23:00:20;6.85;;;4.07;;
23117;SDS011;11728;50.624;6.014;2022-07-23T23:05:36;5.93;;;3.78;;
23117;SDS011;11728;50.624;6.014;2022-07-23T23:10:51;7.10;;;3.92;;
23117;SDS011;11728;50.624;6.014;2022-07-23T23:15:55;5.30;;;4.00;;
23117;SDS011;11728;50.624;6.014;2022-07-23T23:21:11;5.80;;;3.92;;
23117;SDS011;11728;50.624;6.014;2022-07-23T23:26:23;6.55;;;3.85;;
23117;SDS011;11728;50.624;6.014;2022-07-23T23:31:25;6.45;;;3.60;;
23117;SDS011;11728;50.624;6.014;2022-07-23T23:36:44;6.07;;;3.80;;
23117;SDS011;11728;50.624;6.014;2022-07-23T23:41:55;6.18;;;3.58;;
23117;SDS011;11728;50.624;6.014;2022-07-23T23:46:58;7.85;;;4.13;;
23117;SDS011;11728;50.624;6.014;2022-07-23T23:52:14;7.18;;;4.00;;
23117;SDS011;11728;50.624;6.014;2022-07-23T23:57:26;7.18;;;4.15;;
